sensor_id;sensor_type;location;lat;lon;timestamp;temperature;humidity
51733;DHT22;39139;53.144;6.244;2023-05-10T00:00:09;12.70;99.90
51733;DHT22;39139;53.144;6.244;2023-05-10T00:02:35;12.70;99.90
51733;DHT22;39139;53.144;6.244;2023-05-10T00:05:01;12.70;99.90
51733;DHT22;39139;53.144;6.244;2023-05-10T00:07:27;12.70;99.90
51733;DHT22;39139;53.144;6.244;2023-05-10T00:09:53;12.60;99.90
51733;DHT22;39139;53.144;6.244;2023-05-10T00:12:18;12.70;99.90
51733;DHT22;39139;53.144;6.244;2023-05-10T00:14:44;12.60;99.90
51733;DHT22;39139;53.144;6.244;2023-05-10T00:17:10;12.40;99.90
51733;DHT22;39139;53.144;6.244;2023-05-10T00:19:36;12.50;99.90
51733;DHT22;39139;53.144;6.244;2023-05-10T00:22:01;12.40;99.90
51733;DHT22;39139;53.144;6.244;2023-05-10T00:24:27;12.40;99.90
51733;DHT22;39139;53.144;6.244;2023-05-10T00:26:52;12.40;99.90
51733;DHT22;39139;53.144;6.244;2023-05-10T00:29:18;12.40;99.90
51733;DHT22;39139;53.144;6.244;2023-05-10T00:31:44;12.40;99.90
51733;DHT22;39139;53.144;6.244;2023-05-10T00:34:13;12.30;99.90
51733;DHT22;39139;53.144;6.244;2023-05-10T00:36:39;12.40;99.90
51733;DHT22;39139;53.144;6.244;2023-05-10T00:39:04;12.30;99.90
51733;DHT22;39139;53.144;6.244;2023-05-10T00:41:30;12.30;99.90
51733;DHT22;39139;53.144;6.244;2023-05-10T00:43:59;12.20;99.90
51733;DHT22;39139;53.144;6.244;2023-05-10T00:46:25;12.30;99.90
51733;DHT22;39139;53.144;6.244;2023-05-10T00:48:51;12.30;99.90
51733;DHT22;39139;53.144;6.244;2023-05-10T00:51:18;12.20;99.90
51733;DHT22;39139;53.144;6.244;2023-05-10T00:53:47;12.10;99.90
51733;DHT22;39139;53.144;6.244;2023-05-10T00:56:13;12.20;99.90
51733;DHT22;39139;53.144;6.244;2023-05-10T00:58:39;12.20;99.90
51733;DHT22;39139;53.144;6.244;2023-05-10T01:01:06;12.20;99.90
51733;DHT22;39139;53.144;6.244;2023-05-10T01:03:32;12.20;99.90
51733;DHT22;39139;53.144;6.244;2023-05-10T01:05:58;12.20;99.90
51733;DHT22;39139;53.144;6.244;2023-05-10T01:08:24;12.20;99.90
51733;DHT22;39139;53.144;6.244;2023-05-10T01:10:50;12.20;99.90
51733;DHT22;39139;53.144;6.244;2023-05-10T01:13:50;12.10;99.90
51733;DHT22;39139;53.144;6.244;2023-05-10T01:16:12;12.10;99.90
51733;DHT22;39139;53.144;6.244;2023-05-10T01:18:41;12.10;99.90
51733;DHT22;39139;53.144;6.244;2023-05-10T01:26:36;12.10;99.90
51733;DHT22;39139;53.144;6.244;2023-05-10T01:37:25;12.00;99.90
51733;DHT22;39139;53.144;6.244;2023-05-10T01:42:48;12.00;99.90
51733;DHT22;39139;53.144;6.244;2023-05-10T01:45:16;12.00;99.90
51733;DHT22;39139;53.144;6.244;2023-05-10T01:47:44;12.00;99.90
51733;DHT22;39139;53.144;6.244;2023-05-10T01:50:24;12.00;99.90
51733;DHT22;39139;53.144;6.244;2023-05-10T01:52:54;12.00;99.90
51733;DHT22;39139;53.144;6.244;2023-05-10T01:55:22;12.00;99.90
51733;DHT22;39139;53.144;6.244;2023-05-10T01:57:52;12.00;99.90
51733;DHT22;39139;53.144;6.244;2023-05-10T02:00:21;12.00;99.90
51733;DHT22;39139;53.144;6.244;2023-05-10T02:02:48;12.00;99.90
51733;DHT22;39139;53.144;6.244;2023-05-10T02:05:16;12.00;99.90
51733;DHT22;39139;53.144;6.244;2023-05-10T02:07:42;12.00;99.90
51733;DHT22;39139;53.144;6.244;2023-05-10T02:10:09;12.10;99.90
51733;DHT22;39139;53.144;6.244;2023-05-10T02:12:37;12.10;99.90
51733;DHT22;39139;53.144;6.244;2023-05-10T02:15:06;12.10;99.90
51733;DHT22;39139;53.144;6.244;2023-05-10T02:17:32;12.10;99.90
51733;DHT22;39139;53.144;6.244;2023-05-10T02:19:59;12.10;99.90
51733;DHT22;39139;53.144;6.244;2023-05-10T02:22:27;12.10;99.90
51733;DHT22;39139;53.144;6.244;2023-05-10T02:24:55;12.10;99.90
51733;DHT22;39139;53.144;6.244;2023-05-10T02:27:23;12.10;99.90
51733;DHT22;39139;53.144;6.244;2023-05-10T02:29:51;12.10;99.90
51733;DHT22;39139;53.144;6.244;2023-05-10T02:32:17;12.00;99.90
51733;DHT22;39139;53.144;6.244;2023-05-10T02:34:44;12.10;99.90
51733;DHT22;39139;53.144;6.244;2023-05-10T02:37:14;12.00;99.90
51733;DHT22;39139;53.144;6.244;2023-05-10T02:39:41;12.10;99.90
51733;DHT22;39139;53.144;6.244;2023-05-10T02:42:16;12.00;99.90
51733;DHT22;39139;53.144;6.244;2023-05-10T02:44:42;12.00;99.90
51733;DHT22;39139;53.144;6.244;2023-05-10T02:47:08;12.00;99.90
51733;DHT22;39139;53.144;6.244;2023-05-10T02:49:34;12.10;99.90
51733;DHT22;39139;53.144;6.244;2023-05-10T02:52:01;12.10;99.90
51733;DHT22;39139;53.144;6.244;2023-05-10T02:54:31;12.10;99.90
51733;DHT22;39139;53.144;6.244;2023-05-10T02:57:00;12.00;99.90
51733;DHT22;39139;53.144;6.244;2023-05-10T02:59:28;12.00;99.90
51733;DHT22;39139;53.144;6.244;2023-05-10T03:01:53;12.00;99.90
51733;DHT22;39139;53.144;6.244;2023-05-10T03:04:19;12.00;99.90
51733;DHT22;39139;53.144;6.244;2023-05-10T03:06:45;12.00;99.90
51733;DHT22;39139;53.144;6.244;2023-05-10T03:09:12;11.90;99.90
51733;DHT22;39139;53.144;6.244;2023-05-10T03:12:07;12.10;99.90
51733;DHT22;39139;53.144;6.244;2023-05-10T03:17:39;11.90;99.90
51733;DHT22;39139;53.144;6.244;2023-05-10T03:20:09;12.00;99.90
51733;DHT22;39139;53.144;6.244;2023-05-10T03:22:47;11.90;99.90
51733;DHT22;39139;53.144;6.244;2023-05-10T03:25:15;11.90;99.90
51733;DHT22;39139;53.144;6.244;2023-05-10T03:27:43;11.90;99.90
51733;DHT22;39139;53.144;6.244;2023-05-10T03:30:10;11.90;99.90
51733;DHT22;39139;53.144;6.244;2023-05-10T03:32:37;11.80;99.90
51733;DHT22;39139;53.144;6.244;2023-05-10T03:35:09;11.80;99.90
51733;DHT22;39139;53.144;6.244;2023-05-10T03:37:35;11.90;99.90
51733;DHT22;39139;53.144;6.244;2023-05-10T03:40:02;11.80;99.90
51733;DHT22;39139;53.144;6.244;2023-05-10T03:42:28;11.90;99.90
51733;DHT22;39139;53.144;6.244;2023-05-10T03:44:53;11.90;99.90
51733;DHT22;39139;53.144;6.244;2023-05-10T03:47:19;11.90;99.90
51733;DHT22;39139;53.144;6.244;2023-05-10T03:49:45;11.90;99.90
51733;DHT22;39139;53.144;6.244;2023-05-10T03:52:11;11.80;99.90
51733;DHT22;39139;53.144;6.244;2023-05-10T03:54:37;11.90;99.90
51733;DHT22;39139;53.144;6.244;2023-05-10T03:57:03;11.80;99.90
51733;DHT22;39139;53.144;6.244;2023-05-10T03:59:29;11.90;99.90
51733;DHT22;39139;53.144;6.244;2023-05-10T04:01:55;11.80;99.90
51733;DHT22;39139;53.144;6.244;2023-05-10T04:04:21;12.40;99.90
51733;DHT22;39139;53.144;6.244;2023-05-10T04:06:47;11.90;99.90
51733;DHT22;39139;53.144;6.244;2023-05-10T04:09:13;11.90;99.90
51733;DHT22;39139;53.144;6.244;2023-05-10T04:11:39;11.80;99.90
51733;DHT22;39139;53.144;6.244;2023-05-10T04:14:04;11.90;99.90
51733;DHT22;39139;53.144;6.244;2023-05-10T04:16:30;11.90;99.90
51733;DHT22;39139;53.144;6.244;2023-05-10T04:18:55;11.80;99.90
51733;DHT22;39139;53.144;6.244;2023-05-10T04:21:21;11.90;99.90
51733;DHT22;39139;53.144;6.244;2023-05-10T04:23:47;11.90;99.90
51733;DHT22;39139;53.144;6.244;2023-05-10T04:26:13;11.90;99.90
51733;DHT22;39139;53.144;6.244;2023-05-10T04:28:38;12.00;99.90
51733;DHT22;39139;53.144;6.244;2023-05-10T04:31:05;12.00;99.90
51733;DHT22;39139;53.144;6.244;2023-05-10T04:33:31;11.90;99.90
51733;DHT22;39139;53.144;6.244;2023-05-10T04:35:56;11.80;99.90
51733;DHT22;39139;53.144;6.244;2023-05-10T04:38:22;11.90;99.90
51733;DHT22;39139;53.144;6.244;2023-05-10T04:40:48;11.90;99.90
51733;DHT22;39139;53.144;6.244;2023-05-10T04:43:14;11.80;99.90
51733;DHT22;39139;53.144;6.244;2023-05-10T04:45:39;11.80;99.90
51733;DHT22;39139;53.144;6.244;2023-05-10T04:48:05;11.90;99.90
51733;DHT22;39139;53.144;6.244;2023-05-10T04:50:31;11.90;99.90
51733;DHT22;39139;53.144;6.244;2023-05-10T04:52:57;11.90;99.90
51733;DHT22;39139;53.144;6.244;2023-05-10T04:55:22;11.80;99.90
51733;DHT22;39139;53.144;6.244;2023-05-10T04:57:48;11.80;99.90
51733;DHT22;39139;53.144;6.244;2023-05-10T05:00:14;11.80;99.90
51733;DHT22;39139;53.144;6.244;2023-05-10T05:02:44;11.90;99.90
51733;DHT22;39139;53.144;6.244;2023-05-10T05:05:11;11.90;99.90
51733;DHT22;39139;53.144;6.244;2023-05-10T05:07:37;11.90;99.90
51733;DHT22;39139;53.144;6.244;2023-05-10T05:10:05;11.70;99.90
51733;DHT22;39139;53.144;6.244;2023-05-10T05:12:30;11.70;99.90
51733;DHT22;39139;53.144;6.244;2023-05-10T05:14:56;11.70;99.90
51733;DHT22;39139;53.144;6.244;2023-05-10T05:17:22;11.80;99.90
51733;DHT22;39139;53.144;6.244;2023-05-10T05:19:47;11.70;99.90
51733;DHT22;39139;53.144;6.244;2023-05-10T05:22:13;11.90;99.90
51733;DHT22;39139;53.144;6.244;2023-05-10T05:24:39;11.70;99.90
51733;DHT22;39139;53.144;6.244;2023-05-10T05:27:04;11.90;99.90
51733;DHT22;39139;53.144;6.244;2023-05-10T05:29:31;11.90;99.90
51733;DHT22;39139;53.144;6.244;2023-05-10T05:31:56;11.80;99.90
51733;DHT22;39139;53.144;6.244;2023-05-10T05:34:22;11.70;99.90
51733;DHT22;39139;53.144;6.244;2023-05-10T05:36:48;11.70;99.90
51733;DHT22;39139;53.144;6.244;2023-05-10T05:39:13;11.80;99.90
51733;DHT22;39139;53.144;6.244;2023-05-10T05:41:39;11.90;99.90
51733;DHT22;39139;53.144;6.244;2023-05-10T05:44:05;11.80;99.90
51733;DHT22;39139;53.144;6.244;2023-05-10T05:46:30;11.80;99.90
51733;DHT22;39139;53.144;6.244;2023-05-10T05:48:56;11.80;99.90
51733;DHT22;39139;53.144;6.244;2023-05-10T05:51:22;11.70;99.90
51733;DHT22;39139;53.144;6.244;2023-05-10T05:53:47;11.80;99.90
51733;DHT22;39139;53.144;6.244;2023-05-10T05:56:13;11.90;99.90
51733;DHT22;39139;53.144;6.244;2023-05-10T05:58:39;11.80;99.90
51733;DHT22;39139;53.144;6.244;2023-05-10T06:01:05;11.80;99.90
51733;DHT22;39139;53.144;6.244;2023-05-10T06:03:30;11.80;99.90
51733;DHT22;39139;53.144;6.244;2023-05-10T06:05:56;11.90;99.90
51733;DHT22;39139;53.144;6.244;2023-05-10T06:08:22;11.80;99.90
51733;DHT22;39139;53.144;6.244;2023-05-10T06:10:48;12.00;99.90
51733;DHT22;39139;53.144;6.244;2023-05-10T06:13:13;11.90;99.90
51733;DHT22;39139;53.144;6.244;2023-05-10T06:15:39;12.00;99.90
51733;DHT22;39139;53.144;6.244;2023-05-10T06:18:05;11.80;99.90
51733;DHT22;39139;53.144;6.244;2023-05-10T06:20:31;11.80;99.90
51733;DHT22;39139;53.144;6.244;2023-05-10T06:22:57;11.90;99.90
51733;DHT22;39139;53.144;6.244;2023-05-10T06:25:23;12.00;99.90
51733;DHT22;39139;53.144;6.244;2023-05-10T06:27:49;11.90;99.90
51733;DHT22;39139;53.144;6.244;2023-05-10T06:30:15;12.10;99.90
51733;DHT22;39139;53.144;6.244;2023-05-10T06:32:41;12.10;99.90
51733;DHT22;39139;53.144;6.244;2023-05-10T06:35:09;12.00;99.90
51733;DHT22;39139;53.144;6.244;2023-05-10T06:37:34;12.00;99.90
51733;DHT22;39139;53.144;6.244;2023-05-10T06:40:00;12.00;99.90
51733;DHT22;39139;53.144;6.244;2023-05-10T06:42:26;12.10;99.90
51733;DHT22;39139;53.144;6.244;2023-05-10T06:44:52;12.10;99.90
51733;DHT22;39139;53.144;6.244;2023-05-10T06:47:18;12.00;99.90
51733;DHT22;39139;53.144;6.244;2023-05-10T06:49:44;12.10;99.90
51733;DHT22;39139;53.144;6.244;2023-05-10T06:52:09;12.00;99.90
51733;DHT22;39139;53.144;6.244;2023-05-10T06:54:35;12.10;99.90
51733;DHT22;39139;53.144;6.244;2023-05-10T06:57:00;12.10;99.90
51733;DHT22;39139;53.144;6.244;2023-05-10T06:59:28;12.20;99.90
51733;DHT22;39139;53.144;6.244;2023-05-10T07:01:53;12.00;99.90
51733;DHT22;39139;53.144;6.244;2023-05-10T07:04:19;12.10;99.90
51733;DHT22;39139;53.144;6.244;2023-05-10T07:06:45;12.10;99.90
51733;DHT22;39139;53.144;6.244;2023-05-10T07:09:11;12.20;99.90
51733;DHT22;39139;53.144;6.244;2023-05-10T07:11:37;12.30;99.90
51733;DHT22;39139;53.144;6.244;2023-05-10T07:14:03;12.30;99.90
51733;DHT22;39139;53.144;6.244;2023-05-10T07:16:28;12.40;99.90
51733;DHT22;39139;53.144;6.244;2023-05-10T07:18:54;12.30;99.90
51733;DHT22;39139;53.144;6.244;2023-05-10T07:21:20;12.30;99.90
51733;DHT22;39139;53.144;6.244;2023-05-10T07:23:45;12.40;99.90
51733;DHT22;39139;53.144;6.244;2023-05-10T07:26:11;12.40;99.90
51733;DHT22;39139;53.144;6.244;2023-05-10T07:28:37;12.40;99.90
51733;DHT22;39139;53.144;6.244;2023-05-10T07:31:04;12.40;99.90
51733;DHT22;39139;53.144;6.244;2023-05-10T07:33:30;12.50;99.90
51733;DHT22;39139;53.144;6.244;2023-05-10T07:35:55;12.60;99.90
51733;DHT22;39139;53.144;6.244;2023-05-10T07:38:21;12.40;99.90
51733;DHT22;39139;53.144;6.244;2023-05-10T07:40:47;12.50;99.90
51733;DHT22;39139;53.144;6.244;2023-05-10T07:43:12;12.50;99.90
51733;DHT22;39139;53.144;6.244;2023-05-10T07:45:38;12.60;99.90
51733;DHT22;39139;53.144;6.244;2023-05-10T07:48:03;12.70;99.90
51733;DHT22;39139;53.144;6.244;2023-05-10T07:50:29;12.50;99.90
51733;DHT22;39139;53.144;6.244;2023-05-10T07:52:55;12.60;99.90
51733;DHT22;39139;53.144;6.244;2023-05-10T07:55:20;12.60;99.90
51733;DHT22;39139;53.144;6.244;2023-05-10T07:57:46;12.60;99.90
51733;DHT22;39139;53.144;6.244;2023-05-10T08:00:13;12.60;99.90
51733;DHT22;39139;53.144;6.244;2023-05-10T08:02:42;12.60;99.90
51733;DHT22;39139;53.144;6.244;2023-05-10T08:05:08;12.60;99.90
51733;DHT22;39139;53.144;6.244;2023-05-10T08:07:33;12.60;99.90
51733;DHT22;39139;53.144;6.244;2023-05-10T08:09:59;12.60;99.90
51733;DHT22;39139;53.144;6.244;2023-05-10T08:12:25;12.60;99.90
51733;DHT22;39139;53.144;6.244;2023-05-10T08:14:51;12.70;99.90
51733;DHT22;39139;53.144;6.244;2023-05-10T08:17:16;12.70;99.90
51733;DHT22;39139;53.144;6.244;2023-05-10T08:19:42;12.70;99.90
51733;DHT22;39139;53.144;6.244;2023-05-10T08:22:07;12.70;99.90
51733;DHT22;39139;53.144;6.244;2023-05-10T08:24:33;12.80;99.90
51733;DHT22;39139;53.144;6.244;2023-05-10T08:27:06;12.80;99.90
51733;DHT22;39139;53.144;6.244;2023-05-10T08:29:32;12.90;99.90
51733;DHT22;39139;53.144;6.244;2023-05-10T08:31:57;12.90;99.90
51733;DHT22;39139;53.144;6.244;2023-05-10T08:34:23;12.90;99.90
51733;DHT22;39139;53.144;6.244;2023-05-10T08:36:48;13.00;99.90
51733;DHT22;39139;53.144;6.244;2023-05-10T08:39:14;13.00;99.90
51733;DHT22;39139;53.144;6.244;2023-05-10T08:41:44;13.00;99.90
51733;DHT22;39139;53.144;6.244;2023-05-10T08:44:10;13.00;99.90
51733;DHT22;39139;53.144;6.244;2023-05-10T08:46:37;13.10;99.90
51733;DHT22;39139;53.144;6.244;2023-05-10T08:49:06;13.10;99.90
51733;DHT22;39139;53.144;6.244;2023-05-10T08:51:36;13.10;99.90
51733;DHT22;39139;53.144;6.244;2023-05-10T08:54:03;13.20;99.90
51733;DHT22;39139;53.144;6.244;2023-05-10T08:56:29;13.20;99.90
51733;DHT22;39139;53.144;6.244;2023-05-10T08:58:56;13.20;99.90
51733;DHT22;39139;53.144;6.244;2023-05-10T09:01:21;13.30;99.90
51733;DHT22;39139;53.144;6.244;2023-05-10T09:03:47;13.30;99.90
51733;DHT22;39139;53.144;6.244;2023-05-10T09:06:13;13.30;99.90
51733;DHT22;39139;53.144;6.244;2023-05-10T09:08:41;13.40;99.90
51733;DHT22;39139;53.144;6.244;2023-05-10T09:11:07;13.50;99.90
51733;DHT22;39139;53.144;6.244;2023-05-10T09:13:35;13.50;99.90
51733;DHT22;39139;53.144;6.244;2023-05-10T09:16:03;13.60;99.90
51733;DHT22;39139;53.144;6.244;2023-05-10T09:18:29;13.60;99.90
51733;DHT22;39139;53.144;6.244;2023-05-10T09:20:55;13.70;99.90
51733;DHT22;39139;53.144;6.244;2023-05-10T09:23:20;13.70;99.90
51733;DHT22;39139;53.144;6.244;2023-05-10T09:25:46;13.80;99.90
51733;DHT22;39139;53.144;6.244;2023-05-10T09:28:12;13.70;99.90
51733;DHT22;39139;53.144;6.244;2023-05-10T09:30:38;13.80;99.90
51733;DHT22;39139;53.144;6.244;2023-05-10T09:33:04;13.80;99.90
51733;DHT22;39139;53.144;6.244;2023-05-10T09:35:31;13.90;99.90
51733;DHT22;39139;53.144;6.244;2023-05-10T09:38:00;13.90;99.90
51733;DHT22;39139;53.144;6.244;2023-05-10T09:40:28;14.00;99.90
51733;DHT22;39139;53.144;6.244;2023-05-10T09:45:26;14.10;99.90
51733;DHT22;39139;53.144;6.244;2023-05-10T09:47:52;14.10;99.90
51733;DHT22;39139;53.144;6.244;2023-05-10T09:50:19;14.20;99.90
51733;DHT22;39139;53.144;6.244;2023-05-10T09:52:52;14.30;99.90
51733;DHT22;39139;53.144;6.244;2023-05-10T09:55:24;14.40;99.90
51733;DHT22;39139;53.144;6.244;2023-05-10T09:57:59;14.50;99.90
51733;DHT22;39139;53.144;6.244;2023-05-10T10:00:26;14.50;99.90
51733;DHT22;39139;53.144;6.244;2023-05-10T10:02:59;14.40;99.90
51733;DHT22;39139;53.144;6.244;2023-05-10T10:05:32;14.40;99.90
51733;DHT22;39139;53.144;6.244;2023-05-10T10:07:59;14.50;99.90
51733;DHT22;39139;53.144;6.244;2023-05-10T10:10:25;14.50;99.90
51733;DHT22;39139;53.144;6.244;2023-05-10T10:12:52;14.50;99.90
51733;DHT22;39139;53.144;6.244;2023-05-10T10:15:18;14.50;99.90
51733;DHT22;39139;53.144;6.244;2023-05-10T10:17:45;14.50;99.90
51733;DHT22;39139;53.144;6.244;2023-05-10T10:20:12;14.40;99.90
51733;DHT22;39139;53.144;6.244;2023-05-10T10:22:38;14.30;99.90
51733;DHT22;39139;53.144;6.244;2023-05-10T10:25:08;14.20;99.90
51733;DHT22;39139;53.144;6.244;2023-05-10T10:30:43;13.90;99.90
51733;DHT22;39139;53.144;6.244;2023-05-10T10:36:20;13.90;99.90
51733;DHT22;39139;53.144;6.244;2023-05-10T10:57:57;14.20;99.90
51733;DHT22;39139;53.144;6.244;2023-05-10T11:10:34;14.20;99.90
51733;DHT22;39139;53.144;6.244;2023-05-10T11:13:09;14.20;99.90
51733;DHT22;39139;53.144;6.244;2023-05-10T11:15:37;14.20;99.90
51733;DHT22;39139;53.144;6.244;2023-05-10T11:18:23;14.30;99.90
51733;DHT22;39139;53.144;6.244;2023-05-10T11:21:01;14.30;99.90
51733;DHT22;39139;53.144;6.244;2023-05-10T11:26:12;14.40;99.90
51733;DHT22;39139;53.144;6.244;2023-05-10T11:28:44;14.30;99.90
51733;DHT22;39139;53.144;6.244;2023-05-10T11:31:10;14.40;99.90
51733;DHT22;39139;53.144;6.244;2023-05-10T11:33:49;14.40;99.90
51733;DHT22;39139;53.144;6.244;2023-05-10T11:36:17;14.50;99.90
51733;DHT22;39139;53.144;6.244;2023-05-10T11:38:44;14.50;99.90
51733;DHT22;39139;53.144;6.244;2023-05-10T11:41:13;14.50;99.90
51733;DHT22;39139;53.144;6.244;2023-05-10T11:43:40;14.50;99.90
51733;DHT22;39139;53.144;6.244;2023-05-10T11:46:11;14.50;99.90
51733;DHT22;39139;53.144;6.244;2023-05-10T11:48:39;14.50;99.90
51733;DHT22;39139;53.144;6.244;2023-05-10T11:51:07;14.50;99.90
51733;DHT22;39139;53.144;6.244;2023-05-10T11:53:33;14.50;99.90
51733;DHT22;39139;53.144;6.244;2023-05-10T11:56:09;14.40;99.90
51733;DHT22;39139;53.144;6.244;2023-05-10T11:58:39;14.40;99.90
51733;DHT22;39139;53.144;6.244;2023-05-10T12:01:06;14.30;99.90
51733;DHT22;39139;53.144;6.244;2023-05-10T12:03:33;14.40;99.90
51733;DHT22;39139;53.144;6.244;2023-05-10T12:05:59;14.40;99.90
51733;DHT22;39139;53.144;6.244;2023-05-10T12:08:27;14.40;99.90
51733;DHT22;39139;53.144;6.244;2023-05-10T12:11:03;14.50;99.90
51733;DHT22;39139;53.144;6.244;2023-05-10T12:13:29;14.50;99.90
51733;DHT22;39139;53.144;6.244;2023-05-10T12:15:57;14.50;99.90
51733;DHT22;39139;53.144;6.244;2023-05-10T12:18:24;14.40;99.90
51733;DHT22;39139;53.144;6.244;2023-05-10T12:20:53;14.40;99.90
51733;DHT22;39139;53.144;6.244;2023-05-10T12:23:20;14.40;99.90
51733;DHT22;39139;53.144;6.244;2023-05-10T12:25:46;14.40;99.90
51733;DHT22;39139;53.144;6.244;2023-05-10T12:28:12;14.50;99.90
51733;DHT22;39139;53.144;6.244;2023-05-10T12:30:38;14.60;99.90
51733;DHT22;39139;53.144;6.244;2023-05-10T12:33:12;14.40;99.90
51733;DHT22;39139;53.144;6.244;2023-05-10T12:35:52;14.60;99.90
51733;DHT22;39139;53.144;6.244;2023-05-10T12:38:38;14.60;99.90
51733;DHT22;39139;53.144;6.244;2023-05-10T12:41:11;14.60;99.90
51733;DHT22;39139;53.144;6.244;2023-05-10T12:43:38;14.60;99.90
51733;DHT22;39139;53.144;6.244;2023-05-10T12:46:11;14.60;99.90
51733;DHT22;39139;53.144;6.244;2023-05-10T12:48:37;14.70;99.90
51733;DHT22;39139;53.144;6.244;2023-05-10T12:51:04;14.60;99.90
51733;DHT22;39139;53.144;6.244;2023-05-10T12:53:30;14.60;99.90
51733;DHT22;39139;53.144;6.244;2023-05-10T12:55:56;14.60;99.90
51733;DHT22;39139;53.144;6.244;2023-05-10T12:58:22;14.80;99.90
51733;DHT22;39139;53.144;6.244;2023-05-10T13:00:47;14.80;99.90
51733;DHT22;39139;53.144;6.244;2023-05-10T13:03:13;14.80;99.90
51733;DHT22;39139;53.144;6.244;2023-05-10T13:05:40;15.00;99.90
51733;DHT22;39139;53.144;6.244;2023-05-10T13:08:05;15.00;99.90
51733;DHT22;39139;53.144;6.244;2023-05-10T13:10:31;15.10;99.90
51733;DHT22;39139;53.144;6.244;2023-05-10T13:12:58;15.20;99.90
51733;DHT22;39139;53.144;6.244;2023-05-10T13:15:24;15.30;99.90
51733;DHT22;39139;53.144;6.244;2023-05-10T13:17:50;15.50;99.90
51733;DHT22;39139;53.144;6.244;2023-05-10T13:20:16;15.50;99.90
51733;DHT22;39139;53.144;6.244;2023-05-10T13:22:43;15.70;99.90
51733;DHT22;39139;53.144;6.244;2023-05-10T13:25:09;15.70;99.90
51733;DHT22;39139;53.144;6.244;2023-05-10T13:27:34;15.80;99.90
51733;DHT22;39139;53.144;6.244;2023-05-10T13:30:01;15.90;99.90
51733;DHT22;39139;53.144;6.244;2023-05-10T13:32:28;15.90;99.90
51733;DHT22;39139;53.144;6.244;2023-05-10T13:34:54;15.80;99.90
51733;DHT22;39139;53.144;6.244;2023-05-10T13:37:20;15.80;99.90
51733;DHT22;39139;53.144;6.244;2023-05-10T13:39:46;15.80;99.90
51733;DHT22;39139;53.144;6.244;2023-05-10T13:42:12;15.80;99.90
51733;DHT22;39139;53.144;6.244;2023-05-10T13:44:38;15.70;99.90
51733;DHT22;39139;53.144;6.244;2023-05-10T13:47:04;15.70;99.90
51733;DHT22;39139;53.144;6.244;2023-05-10T13:49:30;15.70;99.90
51733;DHT22;39139;53.144;6.244;2023-05-10T13:51:56;15.70;99.90
51733;DHT22;39139;53.144;6.244;2023-05-10T13:54:21;15.70;99.90
51733;DHT22;39139;53.144;6.244;2023-05-10T13:56:47;15.70;99.90
51733;DHT22;39139;53.144;6.244;2023-05-10T13:59:14;15.70;99.90
51733;DHT22;39139;53.144;6.244;2023-05-10T14:01:43;15.70;99.90
51733;DHT22;39139;53.144;6.244;2023-05-10T14:04:09;15.90;99.90
51733;DHT22;39139;53.144;6.244;2023-05-10T14:06:38;15.90;99.90
51733;DHT22;39139;53.144;6.244;2023-05-10T14:09:04;15.90;99.90
51733;DHT22;39139;53.144;6.244;2023-05-10T14:11:31;15.90;99.90
51733;DHT22;39139;53.144;6.244;2023-05-10T14:13:56;16.00;99.90
51733;DHT22;39139;53.144;6.244;2023-05-10T14:16:22;16.00;99.90
51733;DHT22;39139;53.144;6.244;2023-05-10T14:18:47;15.90;99.90
51733;DHT22;39139;53.144;6.244;2023-05-10T14:21:13;15.90;99.90
51733;DHT22;39139;53.144;6.244;2023-05-10T14:23:39;15.90;99.90
51733;DHT22;39139;53.144;6.244;2023-05-10T14:26:04;15.80;99.90
51733;DHT22;39139;53.144;6.244;2023-05-10T14:28:30;15.70;99.90
51733;DHT22;39139;53.144;6.244;2023-05-10T14:30:56;15.70;99.90
51733;DHT22;39139;53.144;6.244;2023-05-10T14:33:21;15.60;99.90
51733;DHT22;39139;53.144;6.244;2023-05-10T14:35:47;15.60;99.90
51733;DHT22;39139;53.144;6.244;2023-05-10T14:38:13;15.50;99.90
51733;DHT22;39139;53.144;6.244;2023-05-10T14:40:39;15.40;99.90
51733;DHT22;39139;53.144;6.244;2023-05-10T14:43:05;15.50;99.90
51733;DHT22;39139;53.144;6.244;2023-05-10T14:45:31;15.40;99.90
51733;DHT22;39139;53.144;6.244;2023-05-10T14:47:57;15.40;99.90
51733;DHT22;39139;53.144;6.244;2023-05-10T14:50:22;15.40;99.90
51733;DHT22;39139;53.144;6.244;2023-05-10T14:52:48;15.40;99.90
51733;DHT22;39139;53.144;6.244;2023-05-10T14:55:14;15.50;99.90
51733;DHT22;39139;53.144;6.244;2023-05-10T14:57:40;15.50;99.90
51733;DHT22;39139;53.144;6.244;2023-05-10T15:00:06;15.50;99.90
51733;DHT22;39139;53.144;6.244;2023-05-10T15:02:32;15.50;99.90
51733;DHT22;39139;53.144;6.244;2023-05-10T15:04:58;15.60;99.90
51733;DHT22;39139;53.144;6.244;2023-05-10T15:07:24;15.60;99.90
51733;DHT22;39139;53.144;6.244;2023-05-10T15:09:50;15.70;99.90
51733;DHT22;39139;53.144;6.244;2023-05-10T15:12:17;15.70;99.90
51733;DHT22;39139;53.144;6.244;2023-05-10T15:14:43;15.70;99.90
51733;DHT22;39139;53.144;6.244;2023-05-10T15:17:08;15.70;99.90
51733;DHT22;39139;53.144;6.244;2023-05-10T15:19:34;15.70;99.90
51733;DHT22;39139;53.144;6.244;2023-05-10T15:22:00;15.70;99.90
51733;DHT22;39139;53.144;6.244;2023-05-10T15:24:25;15.60;99.90
51733;DHT22;39139;53.144;6.244;2023-05-10T15:26:51;15.60;99.90
51733;DHT22;39139;53.144;6.244;2023-05-10T15:29:16;15.60;99.90
51733;DHT22;39139;53.144;6.244;2023-05-10T15:31:51;15.60;99.90
51733;DHT22;39139;53.144;6.244;2023-05-10T15:34:17;15.50;99.90
51733;DHT22;39139;53.144;6.244;2023-05-10T15:36:44;15.50;99.90
51733;DHT22;39139;53.144;6.244;2023-05-10T15:39:10;15.50;99.90
51733;DHT22;39139;53.144;6.244;2023-05-10T15:41:37;15.40;99.90
51733;DHT22;39139;53.144;6.244;2023-05-10T15:44:03;15.40;99.90
51733;DHT22;39139;53.144;6.244;2023-05-10T15:46:29;15.30;99.90
51733;DHT22;39139;53.144;6.244;2023-05-10T15:48:55;15.30;99.90
51733;DHT22;39139;53.144;6.244;2023-05-10T15:51:22;15.30;99.90
51733;DHT22;39139;53.144;6.244;2023-05-10T15:53:47;15.30;99.90
51733;DHT22;39139;53.144;6.244;2023-05-10T15:56:13;15.40;99.90
51733;DHT22;39139;53.144;6.244;2023-05-10T15:58:40;15.10;99.90
51733;DHT22;39139;53.144;6.244;2023-05-10T16:01:06;15.10;99.90
51733;DHT22;39139;53.144;6.244;2023-05-10T16:03:32;15.10;99.90
51733;DHT22;39139;53.144;6.244;2023-05-10T16:05:58;15.10;99.90
51733;DHT22;39139;53.144;6.244;2023-05-10T16:08:24;15.10;99.90
51733;DHT22;39139;53.144;6.244;2023-05-10T16:10:50;15.10;99.90
51733;DHT22;39139;53.144;6.244;2023-05-10T16:13:16;15.10;99.90
51733;DHT22;39139;53.144;6.244;2023-05-10T16:15:42;15.10;99.90
51733;DHT22;39139;53.144;6.244;2023-05-10T16:18:08;15.10;99.90
51733;DHT22;39139;53.144;6.244;2023-05-10T16:20:34;15.10;99.90
51733;DHT22;39139;53.144;6.244;2023-05-10T16:23:04;15.00;99.90
51733;DHT22;39139;53.144;6.244;2023-05-10T16:25:31;15.10;99.90
51733;DHT22;39139;53.144;6.244;2023-05-10T16:27:57;15.00;99.90